sensor_id;sensor_type;location;lat;lon;timestamp;temperature;humidity
59162;DHT22;44942;48.936;8.260;2023-07-29T00:01:41;25.30;59.20
59162;DHT22;44942;48.936;8.260;2023-07-29T00:06:41;25.30;59.20
59162;DHT22;44942;48.936;8.260;2023-07-29T00:11:42;25.30;59.10
59162;DHT22;44942;48.936;8.260;2023-07-29T00:16:42;25.30;59.20
59162;DHT22;44942;48.936;8.260;2023-07-29T00:21:43;25.30;59.10
59162;DHT22;44942;48.936;8.260;2023-07-29T00:26:43;25.30;59.20
59162;DHT22;44942;48.936;8.260;2023-07-29T00:31:44;25.30;59.20
59162;DHT22;44942;48.936;8.260;2023-07-29T00:36:45;25.30;59.20
59162;DHT22;44942;48.936;8.260;2023-07-29T00:41:45;25.30;59.10
59162;DHT22;44942;48.936;8.260;2023-07-29T00:46:50;25.20;59.10
59162;DHT22;44942;48.936;8.260;2023-07-29T00:51:50;25.20;59.20
59162;DHT22;44942;48.936;8.260;2023-07-29T00:56:51;25.20;59.20
59162;DHT22;44942;48.936;8.260;2023-07-29T01:01:51;25.20;59.20
59162;DHT22;44942;48.936;8.260;2023-07-29T01:12:06;25.20;59.10
59162;DHT22;44942;48.936;8.260;2023-07-29T01:17:09;25.20;59.10
59162;DHT22;44942;48.936;8.260;2023-07-29T01:22:13;25.20;59.20
59162;DHT22;44942;48.936;8.260;2023-07-29T01:27:13;25.20;59.10
59162;DHT22;44942;48.936;8.260;2023-07-29T01:32:17;25.20;59.20
59162;DHT22;44942;48.936;8.260;2023-07-29T01:37:21;25.20;59.10
59162;DHT22;44942;48.936;8.260;2023-07-29T01:42:23;25.20;59.10
59162;DHT22;44942;48.936;8.260;2023-07-29T01:47:23;25.10;59.00
59162;DHT22;44942;48.936;8.260;2023-07-29T01:52:24;25.10;59.00
59162;DHT22;44942;48.936;8.260;2023-07-29T01:57:24;25.10;59.00
59162;DHT22;44942;48.936;8.260;2023-07-29T02:02:25;25.10;59.10
59162;DHT22;44942;48.936;8.260;2023-07-29T02:07:25;25.10;59.00
59162;DHT22;44942;48.936;8.260;2023-07-29T02:12:27;25.10;59.00
59162;DHT22;44942;48.936;8.260;2023-07-29T02:17:27;25.10;59.10
59162;DHT22;44942;48.936;8.260;2023-07-29T02:22:27;25.10;59.00
59162;DHT22;44942;48.936;8.260;2023-07-29T02:27:28;25.10;59.00
59162;DHT22;44942;48.936;8.260;2023-07-29T02:32:28;25.10;59.10
59162;DHT22;44942;48.936;8.260;2023-07-29T02:37:29;25.10;59.00
59162;DHT22;44942;48.936;8.260;2023-07-29T02:42:30;25.10;59.00
59162;DHT22;44942;48.936;8.260;2023-07-29T02:47:30;25.10;59.00
59162;DHT22;44942;48.936;8.260;2023-07-29T02:52:31;25.10;59.00
59162;DHT22;44942;48.936;8.260;2023-07-29T02:57:31;25.10;59.10
59162;DHT22;44942;48.936;8.260;2023-07-29T03:02:31;25.10;59.10
59162;DHT22;44942;48.936;8.260;2023-07-29T03:07:32;25.00;59.00
59162;DHT22;44942;48.936;8.260;2023-07-29T03:12:33;25.10;59.10
59162;DHT22;44942;48.936;8.260;2023-07-29T03:17:33;25.00;59.00
59162;DHT22;44942;48.936;8.260;2023-07-29T03:22:33;25.00;59.00
59162;DHT22;44942;48.936;8.260;2023-07-29T03:27:34;25.00;59.10
59162;DHT22;44942;48.936;8.260;2023-07-29T03:32:38;25.00;59.10
59162;DHT22;44942;48.936;8.260;2023-07-29T03:37:39;25.00;59.10
59162;DHT22;44942;48.936;8.260;2023-07-29T03:42:40;25.00;59.10
59162;DHT22;44942;48.936;8.260;2023-07-29T03:47:41;25.00;59.10
59162;DHT22;44942;48.936;8.260;2023-07-29T03:52:41;25.00;59.20
59162;DHT22;44942;48.936;8.260;2023-07-29T03:57:42;25.00;59.20
59162;DHT22;44942;48.936;8.260;2023-07-29T04:02:42;25.00;59.30
59162;DHT22;44942;48.936;8.260;2023-07-29T04:07:43;25.00;59.30
59162;DHT22;44942;48.936;8.260;2023-07-29T04:12:43;25.00;59.30
59162;DHT22;44942;48.936;8.260;2023-07-29T04:17:44;25.00;59.30
59162;DHT22;44942;48.936;8.260;2023-07-29T04:22:44;25.00;59.40
59162;DHT22;44942;48.936;8.260;2023-07-29T04:27:45;25.00;59.40
59162;DHT22;44942;48.936;8.260;2023-07-29T04:32:45;25.00;59.40
59162;DHT22;44942;48.936;8.260;2023-07-29T04:37:48;25.00;59.50
59162;DHT22;44942;48.936;8.260;2023-07-29T04:42:49;25.00;59.40
59162;DHT22;44942;48.936;8.260;2023-07-29T04:47:49;25.00;59.50
59162;DHT22;44942;48.936;8.260;2023-07-29T04:52:50;25.00;59.50
59162;DHT22;44942;48.936;8.260;2023-07-29T04:57:50;25.00;59.50
59162;DHT22;44942;48.936;8.260;2023-07-29T05:02:51;25.00;59.60
59162;DHT22;44942;48.936;8.260;2023-07-29T05:07:52;25.00;59.70
59162;DHT22;44942;48.936;8.260;2023-07-29T05:12:52;25.00;59.70
59162;DHT22;44942;48.936;8.260;2023-07-29T05:17:53;25.00;59.70
59162;DHT22;44942;48.936;8.260;2023-07-29T05:22:53;25.00;59.80
59162;DHT22;44942;48.936;8.260;2023-07-29T05:27:53;25.00;59.80
59162;DHT22;44942;48.936;8.260;2023-07-29T05:32:54;25.00;59.90
59162;DHT22;44942;48.936;8.260;2023-07-29T05:37:54;25.00;59.90
59162;DHT22;44942;48.936;8.260;2023-07-29T05:42:55;25.00;59.90
59162;DHT22;44942;48.936;8.260;2023-07-29T05:47:56;25.00;59.90
59162;DHT22;44942;48.936;8.260;2023-07-29T05:52:56;25.00;59.90
59162;DHT22;44942;48.936;8.260;2023-07-29T05:57:57;25.00;59.90
59162;DHT22;44942;48.936;8.260;2023-07-29T06:02:58;25.00;59.90
59162;DHT22;44942;48.936;8.260;2023-07-29T06:07:58;25.00;59.90
59162;DHT22;44942;48.936;8.260;2023-07-29T06:12:59;25.00;59.90
59162;DHT22;44942;48.936;8.260;2023-07-29T06:17:59;25.00;59.90
59162;DHT22;44942;48.936;8.260;2023-07-29T06:23:00;25.00;59.90
59162;DHT22;44942;48.936;8.260;2023-07-29T06:28:00;25.00;59.90
59162;DHT22;44942;48.936;8.260;2023-07-29T06:33:01;25.10;59.90
59162;DHT22;44942;48.936;8.260;2023-07-29T06:38:03;25.00;59.90
59162;DHT22;44942;48.936;8.260;2023-07-29T06:43:03;25.00;60.00
59162;DHT22;44942;48.936;8.260;2023-07-29T06:48:04;25.00;60.00
59162;DHT22;44942;48.936;8.260;2023-07-29T06:53:04;25.00;60.10
59162;DHT22;44942;48.936;8.260;2023-07-29T06:58:05;25.00;60.10
59162;DHT22;44942;48.936;8.260;2023-07-29T07:03:05;25.00;60.10
59162;DHT22;44942;48.936;8.260;2023-07-29T07:08:06;25.00;60.10
59162;DHT22;44942;48.936;8.260;2023-07-29T07:13:06;25.00;60.10
59162;DHT22;44942;48.936;8.260;2023-07-29T07:18:07;25.00;60.20
59162;DHT22;44942;48.936;8.260;2023-07-29T07:23:07;25.00;60.20
59162;DHT22;44942;48.936;8.260;2023-07-29T07:28:11;25.00;60.30
59162;DHT22;44942;48.936;8.260;2023-07-29T07:33:12;25.00;60.40
59162;DHT22;44942;48.936;8.260;2023-07-29T07:38:12;25.00;60.40
59162;DHT22;44942;48.936;8.260;2023-07-29T07:43:13;25.00;60.40
59162;DHT22;44942;48.936;8.260;2023-07-29T07:48:13;25.00;60.30
59162;DHT22;44942;48.936;8.260;2023-07-29T07:53:14;25.00;60.20
59162;DHT22;44942;48.936;8.260;2023-07-29T07:58:14;25.00;60.20
59162;DHT22;44942;48.936;8.260;2023-07-29T08:03:14;25.00;60.20
59162;DHT22;44942;48.936;8.260;2023-07-29T08:08:15;25.10;60.20
59162;DHT22;44942;48.936;8.260;2023-07-29T08:13:16;25.00;60.30
59162;DHT22;44942;48.936;8.260;2023-07-29T08:18:16;25.10;60.30
59162;DHT22;44942;48.936;8.260;2023-07-29T08:23:17;25.10;60.10
59162;DHT22;44942;48.936;8.260;2023-07-29T08:28:17;25.10;60.10
59162;DHT22;44942;48.936;8.260;2023-07-29T08:33:18;25.10;60.00
59162;DHT22;44942;48.936;8.260;2023-07-29T08:38:19;25.10;59.90
59162;DHT22;44942;48.936;8.260;2023-07-29T08:43:19;25.10;59.90
59162;DHT22;44942;48.936;8.260;2023-07-29T08:48:23;25.10;59.90
59162;DHT22;44942;48.936;8.260;2023-07-29T08:53:29;25.10;60.00
59162;DHT22;44942;48.936;8.260;2023-07-29T08:58:31;25.10;59.90
59162;DHT22;44942;48.936;8.260;2023-07-29T09:03:31;25.10;60.10
59162;DHT22;44942;48.936;8.260;2023-07-29T09:08:32;25.10;60.20
59162;DHT22;44942;48.936;8.260;2023-07-29T09:13:33;25.10;60.30
59162;DHT22;44942;48.936;8.260;2023-07-29T09:18:34;25.10;60.30
59162;DHT22;44942;48.936;8.260;2023-07-29T09:23:38;25.10;60.10
59162;DHT22;44942;48.936;8.260;2023-07-29T09:28:40;25.20;60.20
59162;DHT22;44942;48.936;8.260;2023-07-29T09:33:41;25.20;60.30
59162;DHT22;44942;48.936;8.260;2023-07-29T09:38:42;25.20;60.40
59162;DHT22;44942;48.936;8.260;2023-07-29T09:43:44;25.20;60.40
59162;DHT22;44942;48.936;8.260;2023-07-29T09:48:44;25.20;60.40
59162;DHT22;44942;48.936;8.260;2023-07-29T09:53:47;25.20;60.60
59162;DHT22;44942;48.936;8.260;2023-07-29T09:58:48;25.20;60.70
59162;DHT22;44942;48.936;8.260;2023-07-29T10:03:48;25.20;60.80
59162;DHT22;44942;48.936;8.260;2023-07-29T10:08:49;25.20;60.80
59162;DHT22;44942;48.936;8.260;2023-07-29T10:13:50;25.20;60.90
59162;DHT22;44942;48.936;8.260;2023-07-29T10:18:52;25.20;60.90
59162;DHT22;44942;48.936;8.260;2023-07-29T10:23:53;25.20;60.90
59162;DHT22;44942;48.936;8.260;2023-07-29T10:28:57;25.30;61.00
59162;DHT22;44942;48.936;8.260;2023-07-29T10:34:01;25.30;61.00
59162;DHT22;44942;48.936;8.260;2023-07-29T10:39:02;25.30;61.10
59162;DHT22;44942;48.936;8.260;2023-07-29T10:44:02;25.30;61.00
59162;DHT22;44942;48.936;8.260;2023-07-29T10:49:03;25.30;61.00
59162;DHT22;44942;48.936;8.260;2023-07-29T10:54:09;25.30;61.10
59162;DHT22;44942;48.936;8.260;2023-07-29T11:04:23;25.30;61.10
59162;DHT22;44942;48.936;8.260;2023-07-29T11:09:40;25.30;61.00
59162;DHT22;44942;48.936;8.260;2023-07-29T11:14:41;25.30;61.00
59162;DHT22;44942;48.936;8.260;2023-07-29T11:19:41;25.30;60.90
59162;DHT22;44942;48.936;8.260;2023-07-29T11:24:42;25.30;60.80
59162;DHT22;44942;48.936;8.260;2023-07-29T11:29:43;25.30;60.60
59162;DHT22;44942;48.936;8.260;2023-07-29T11:34:44;25.40;60.60
59162;DHT22;44942;48.936;8.260;2023-07-29T11:39:44;25.40;60.40
59162;DHT22;44942;48.936;8.260;2023-07-29T11:44:45;25.40;60.30
59162;DHT22;44942;48.936;8.260;2023-07-29T11:49:46;25.40;60.10
59162;DHT22;44942;48.936;8.260;2023-07-29T11:54:47;25.40;60.00
59162;DHT22;44942;48.936;8.260;2023-07-29T11:59:48;25.40;59.80
59162;DHT22;44942;48.936;8.260;2023-07-29T12:04:48;25.40;59.70
59162;DHT22;44942;48.936;8.260;2023-07-29T12:09:49;25.40;59.60
59162;DHT22;44942;48.936;8.260;2023-07-29T12:14:50;25.40;59.50
59162;DHT22;44942;48.936;8.260;2023-07-29T12:19:53;25.40;59.30
59162;DHT22;44942;48.936;8.260;2023-07-29T12:24:54;25.50;59.20
59162;DHT22;44942;48.936;8.260;2023-07-29T12:29:55;25.50;59.10
59162;DHT22;44942;48.936;8.260;2023-07-29T12:34:55;25.50;59.10
59162;DHT22;44942;48.936;8.260;2023-07-29T12:39:56;25.50;59.00
59162;DHT22;44942;48.936;8.260;2023-07-29T12:44:56;25.50;58.90
59162;DHT22;44942;48.936;8.260;2023-07-29T12:49:56;25.50;58.90
59162;DHT22;44942;48.936;8.260;2023-07-29T12:54:57;25.50;58.80
59162;DHT22;44942;48.936;8.260;2023-07-29T12:59:58;25.60;58.80
59162;DHT22;44942;48.936;8.260;2023-07-29T13:04:58;25.60;58.70
59162;DHT22;44942;48.936;8.260;2023-07-29T13:09:59;25.50;58.60
59162;DHT22;44942;48.936;8.260;2023-07-29T13:15:00;25.60;58.60
59162;DHT22;44942;48.936;8.260;2023-07-29T13:20:00;25.60;58.50
59162;DHT22;44942;48.936;8.260;2023-07-29T13:25:01;25.60;58.40
59162;DHT22;44942;48.936;8.260;2023-07-29T13:30:01;25.60;58.30
59162;DHT22;44942;48.936;8.260;2023-07-29T13:35:02;25.60;58.20
59162;DHT22;44942;48.936;8.260;2023-07-29T13:40:02;25.60;58.10
59162;DHT22;44942;48.936;8.260;2023-07-29T13:45:03;25.70;58.10
59162;DHT22;44942;48.936;8.260;2023-07-29T13:50:04;25.60;58.00
59162;DHT22;44942;48.936;8.260;2023-07-29T13:55:05;25.70;57.90
59162;DHT22;44942;48.936;8.260;2023-07-29T14:00:06;25.70;57.80
59162;DHT22;44942;48.936;8.260;2023-07-29T14:05:07;25.70;57.80
59162;DHT22;44942;48.936;8.260;2023-07-29T14:10:08;25.70;57.70
59162;DHT22;44942;48.936;8.260;2023-07-29T14:15:08;25.70;57.60
59162;DHT22;44942;48.936;8.260;2023-07-29T14:20:09;25.70;57.60
59162;DHT22;44942;48.936;8.260;2023-07-29T14:25:09;25.70;57.40
59162;DHT22;44942;48.936;8.260;2023-07-29T14:30:11;25.70;57.40
59162;DHT22;44942;48.936;8.260;2023-07-29T14:35:11;25.70;57.30
59162;DHT22;44942;48.936;8.260;2023-07-29T14:40:12;25.70;57.20
59162;DHT22;44942;48.936;8.260;2023-07-29T14:45:13;25.80;57.20
59162;DHT22;44942;48.936;8.260;2023-07-29T14:50:13;25.80;57.20
59162;DHT22;44942;48.936;8.260;2023-07-29T14:55:14;25.80;57.10
59162;DHT22;44942;48.936;8.260;2023-07-29T15:00:14;25.90;57.10
59162;DHT22;44942;48.936;8.260;2023-07-29T15:05:15;25.80;57.00
59162;DHT22;44942;48.936;8.260;2023-07-29T15:10:16;25.80;56.90
59162;DHT22;44942;48.936;8.260;2023-07-29T15:15:16;25.90;57.00
59162;DHT22;44942;48.936;8.260;2023-07-29T15:20:17;25.90;56.90
59162;DHT22;44942;48.936;8.260;2023-07-29T15:25:17;25.90;56.90
59162;DHT22;44942;48.936;8.260;2023-07-29T15:30:18;25.90;56.90
59162;DHT22;44942;48.936;8.260;2023-07-29T15:35:21;25.90;56.90
59162;DHT22;44942;48.936;8.260;2023-07-29T15:40:21;25.90;56.90
59162;DHT22;44942;48.936;8.260;2023-07-29T15:45:22;26.00;56.90
59162;DHT22;44942;48.936;8.260;2023-07-29T15:50:22;26.00;56.90
59162;DHT22;44942;48.936;8.260;2023-07-29T15:55:23;26.00;56.90
59162;DHT22;44942;48.936;8.260;2023-07-29T16:00:23;26.00;56.90
59162;DHT22;44942;48.936;8.260;2023-07-29T16:05:24;26.10;57.10
59162;DHT22;44942;48.936;8.260;2023-07-29T16:10:25;26.10;57.00
59162;DHT22;44942;48.936;8.260;2023-07-29T16:15:25;26.10;57.00
59162;DHT22;44942;48.936;8.260;2023-07-29T16:20:26;26.10;56.90
59162;DHT22;44942;48.936;8.260;2023-07-29T16:25:27;26.10;56.90
59162;DHT22;44942;48.936;8.260;2023-07-29T16:30:27;26.10;56.90
59162;DHT22;44942;48.936;8.260;2023-07-29T16:35:28;26.20;57.00
59162;DHT22;44942;48.936;8.260;2023-07-29T16:40:28;26.20;57.00
59162;DHT22;44942;48.936;8.260;2023-07-29T16:45:29;26.20;57.00
59162;DHT22;44942;48.936;8.260;2023-07-29T16:50:30;26.20;56.90
59162;DHT22;44942;48.936;8.260;2023-07-29T16:55:31;26.20;56.90
59162;DHT22;44942;48.936;8.260;2023-07-29T17:00:31;26.20;56.90
59162;DHT22;44942;48.936;8.260;2023-07-29T17:05:32;26.20;56.90
59162;DHT22;44942;48.936;8.260;2023-07-29T17:10:33;26.20;56.80
59162;DHT22;44942;48.936;8.260;2023-07-29T17:15:34;26.20;56.80
59162;DHT22;44942;48.936;8.260;2023-07-29T17:20:34;26.20;56.80
59162;DHT22;44942;48.936;8.260;2023-07-29T17:25:34;26.30;56.80
59162;DHT22;44942;48.936;8.260;2023-07-29T17:30:35;26.20;56.70
59162;DHT22;44942;48.936;8.260;2023-07-29T17:35:35;26.20;56.80
59162;DHT22;44942;48.936;8.260;2023-07-29T17:40:36;26.20;56.70
59162;DHT22;44942;48.936;8.260;2023-07-29T17:45:37;26.20;56.70
59162;DHT22;44942;48.936;8.260;2023-07-29T17:50:37;26.20;56.70
59162;DHT22;44942;48.936;8.260;2023-07-29T17:55:38;26.20;56.70
59162;DHT22;44942;48.936;8.260;2023-07-29T18:00:39;26.20;56.70
59162;DHT22;44942;48.936;8.260;2023-07-29T18:05:39;26.20;56.70
59162;DHT22;44942;48.936;8.260;2023-07-29T18:10:40;26.20;56.80
59162;DHT22;44942;48.936;8.260;2023-07-29T18:15:41;26.30;56.80
59162;DHT22;44942;48.936;8.260;2023-07-29T18:20:41;26.20;56.80
59162;DHT22;44942;48.936;8.260;2023-07-29T18:25:42;26.30;56.90
59162;DHT22;44942;48.936;8.260;2023-07-29T18:30:43;26.30;57.00
59162;DHT22;44942;48.936;8.260;2023-07-29T18:35:43;26.20;57.00
59162;DHT22;44942;48.936;8.260;2023-07-29T18:40:44;26.20;57.00
59162;DHT22;44942;48.936;8.260;2023-07-29T18:45:44;26.20;57.10
59162;DHT22;44942;48.936;8.260;2023-07-29T18:50:45;26.20;57.10
59162;DHT22;44942;48.936;8.260;2023-07-29T18:55:46;26.20;57.10
59162;DHT22;44942;48.936;8.260;2023-07-29T19:00:46;26.20;57.10
59162;DHT22;44942;48.936;8.260;2023-07-29T19:05:48;26.20;57.20
59162;DHT22;44942;48.936;8.260;2023-07-29T19:10:48;26.20;57.20
59162;DHT22;44942;48.936;8.260;2023-07-29T19:15:50;26.20;57.20
59162;DHT22;44942;48.936;8.260;2023-07-29T19:20:51;26.20;57.30
59162;DHT22;44942;48.936;8.260;2023-07-29T19:25:51;26.20;57.30
59162;DHT22;44942;48.936;8.260;2023-07-29T19:30:52;26.20;57.30
59162;DHT22;44942;48.936;8.260;2023-07-29T19:35:54;26.20;57.30
59162;DHT22;44942;48.936;8.260;2023-07-29T19:40:58;26.20;57.30
59162;DHT22;44942;48.936;8.260;2023-07-29T19:45:59;26.20;57.30
59162;DHT22;44942;48.936;8.260;2023-07-29T19:51:00;26.20;57.40
59162;DHT22;44942;48.936;8.260;2023-07-29T19:56:01;26.20;57.40
59162;DHT22;44942;48.936;8.260;2023-07-29T20:01:01;26.20;57.50
59162;DHT22;44942;48.936;8.260;2023-07-29T20:06:02;26.20;57.50
59162;DHT22;44942;48.936;8.260;2023-07-29T20:11:02;26.10;57.50
59162;DHT22;44942;48.936;8.260;2023-07-29T20:16:04;26.10;57.50
59162;DHT22;44942;48.936;8.260;2023-07-29T20:21:04;26.10;57.50
59162;DHT22;44942;48.936;8.260;2023-07-29T20:26:05;26.10;57.60
59162;DHT22;44942;48.936;8.260;2023-07-29T20:31:05;26.10;57.50
59162;DHT22;44942;48.936;8.260;2023-07-29T20:36:06;26.10;57.60
59162;DHT22;44942;48.936;8.260;2023-07-29T20:41:06;26.10;57.60
59162;DHT22;44942;48.936;8.260;2023-07-29T20:46:07;26.10;57.60
59162;DHT22;44942;48.936;8.260;2023-07-29T20:51:07;26.10;57.60
59162;DHT22;44942;48.936;8.260;2023-07-29T20:56:08;26.10;57.70
59162;DHT22;44942;48.936;8.260;2023-07-29T21:01:08;26.10;57.70
59162;DHT22;44942;48.936;8.260;2023-07-29T21:06:10;26.10;57.60
59162;DHT22;44942;48.936;8.260;2023-07-29T21:11:11;26.10;57.60
59162;DHT22;44942;48.936;8.260;2023-07-29T21:16:11;26.10;57.60
59162;DHT22;44942;48.936;8.260;2023-07-29T21:21:12;26.10;57.60
59162;DHT22;44942;48.936;8.260;2023-07-29T21:26:13;26.10;57.70
59162;DHT22;44942;48.936;8.260;2023-07-29T21:31:13;26.10;57.70
59162;DHT22;44942;48.936;8.260;2023-07-29T21:36:14;26.10;57.80
59162;DHT22;44942;48.936;8.260;2023-07-29T21:41:14;26.10;57.80
59162;DHT22;44942;48.936;8.260;2023-07-29T21:46:15;26.10;57.80
59162;DHT22;44942;48.936;8.260;2023-07-29T21:51:16;26.10;57.90
59162;DHT22;44942;48.936;8.260;2023-07-29T21:56:16;26.10;57.90
59162;DHT22;44942;48.936;8.260;2023-07-29T22:01:17;26.10;57.90
59162;DHT22;44942;48.936;8.260;2023-07-29T22:06:17;26.10;58.00
59162;DHT22;44942;48.936;8.260;2023-07-29T22:11:20;26.10;58.00
59162;DHT22;44942;48.936;8.260;2023-07-29T22:16:20;26.00;57.90
59162;DHT22;44942;48.936;8.260;2023-07-29T22:21:21;26.00;57.90
59162;DHT22;44942;48.936;8.260;2023-07-29T22:26:22;26.00;57.90
59162;DHT22;44942;48.936;8.260;2023-07-29T22:31:22;26.00;58.00
59162;DHT22;44942;48.936;8.260;2023-07-29T22:36:23;26.00;58.00
59162;DHT22;44942;48.936;8.260;2023-07-29T22:41:24;26.10;58.00
59162;DHT22;44942;48.936;8.260;2023-07-29T22:46:24;26.00;58.10
59162;DHT22;44942;48.936;8.260;2023-07-29T22:51:25;26.00;58.10
59162;DHT22;44942;48.936;8.260;2023-07-29T22:56:25;26.00;58.10
59162;DHT22;44942;48.936;8.260;2023-07-29T23:01:26;26.00;58.10
59162;DHT22;44942;48.936;8.260;2023-07-29T23:06:26;26.00;58.20
59162;DHT22;44942;48.936;8.260;2023-07-29T23:11:27;25.90;58.20
59162;DHT22;44942;48.936;8.260;2023-07-29T23:16:27;25.90;58.20
59162;DHT22;44942;48.936;8.260;2023-07-29T23:21:28;26.00;58.30
59162;DHT22;44942;48.936;8.260;2023-07-29T23:26:28;25.90;58.20
59162;DHT22;44942;48.936;8.260;2023-07-29T23:31:29;25.90;58.30
59162;DHT22;44942;48.936;8.260;2023-07-29T23:36:29;25.90;58.30
59162;DHT22;44942;48.936;8.260;2023-07-29T23:41:30;25.90;58.30
59162;DHT22;44942;48.936;8.260;2023-07-29T23:46:30;25.90;58.30
59162;DHT22;44942;48.936;8.260;2023-07-29T23:51:31;25.80;58.40
59162;DHT22;44942;48.936;8.260;2023-07-29T23:56:31;25.90;58.40
